In Rescue
 
Open Full Screen Window  High Contrast Mode
Wind Gusting 00 knots
05
September 19, 2019 4:52 PM EDT
Weather Information
Wind Direction
  130 °
Wind Speed
  05 kt (6 mph)
Wind Gust
  00 kt (0 mph)
Altimeter
30.11 in
Visibility
10 SM
Temperature
27° C
81° F
Dewpoint
14° C
57° F
Humidity
45%
Sky Condition
Clear
VFR

METAR KRNP 192052Z AUTO 13005KT 10SM CLR 27/14 A3011 RMK AO2 T02710144

FAA Disclaimer: The data displayed is for advisory purposes only and is not to be used for flight planning or operations.